sensor_id;sensor_type;location;lat;lon;timestamp;temperature;humidity
68139;DHT22;54940;50.842;4.410;2022-07-04T00:00:22;18.60;92.20
68139;DHT22;54940;50.842;4.410;2022-07-04T00:02:49;18.60;92.30
68139;DHT22;54940;50.842;4.410;2022-07-04T00:05:15;18.60;92.30
68139;DHT22;54940;50.842;4.410;2022-07-04T00:07:42;18.50;92.30
68139;DHT22;54940;50.842;4.410;2022-07-04T00:10:10;18.50;92.30
68139;DHT22;54940;50.842;4.410;2022-07-04T00:12:36;18.50;92.40
68139;DHT22;54940;50.842;4.410;2022-07-04T00:15:03;18.50;92.40
68139;DHT22;54940;50.842;4.410;2022-07-04T00:17:30;18.40;92.60
68139;DHT22;54940;50.842;4.410;2022-07-04T00:19:55;18.50;92.40
68139;DHT22;54940;50.842;4.410;2022-07-04T00:22:21;18.40;92.50
68139;DHT22;54940;50.842;4.410;2022-07-04T00:24:47;18.40;92.60
68139;DHT22;54940;50.842;4.410;2022-07-04T00:27:12;18.30;92.80
68139;DHT22;54940;50.842;4.410;2022-07-04T00:29:38;18.40;92.70
68139;DHT22;54940;50.842;4.410;2022-07-04T00:32:04;18.30;92.80
68139;DHT22;54940;50.842;4.410;2022-07-04T00:34:30;18.30;92.90
68139;DHT22;54940;50.842;4.410;2022-07-04T00:36:56;18.30;92.90
68139;DHT22;54940;50.842;4.410;2022-07-04T00:39:21;18.20;93.00
68139;DHT22;54940;50.842;4.410;2022-07-04T00:41:47;18.20;93.10
68139;DHT22;54940;50.842;4.410;2022-07-04T00:44:13;18.20;93.00
68139;DHT22;54940;50.842;4.410;2022-07-04T00:46:42;18.20;93.20
68139;DHT22;54940;50.842;4.410;2022-07-04T00:49:08;18.10;93.20
68139;DHT22;54940;50.842;4.410;2022-07-04T00:51:34;18.20;93.20
68139;DHT22;54940;50.842;4.410;2022-07-04T00:54:02;18.10;93.30
68139;DHT22;54940;50.842;4.410;2022-07-04T00:56:28;18.10;93.30
68139;DHT22;54940;50.842;4.410;2022-07-04T00:58:54;18.10;93.60
68139;DHT22;54940;50.842;4.410;2022-07-04T01:01:20;18.00;94.20
68139;DHT22;54940;50.842;4.410;2022-07-04T01:03:46;17.90;94.70
68139;DHT22;54940;50.842;4.410;2022-07-04T01:06:14;17.80;94.40
68139;DHT22;54940;50.842;4.410;2022-07-04T01:08:42;17.80;94.60
68139;DHT22;54940;50.842;4.410;2022-07-04T01:11:08;17.90;94.50
68139;DHT22;54940;50.842;4.410;2022-07-04T01:13:35;17.80;94.70
68139;DHT22;54940;50.842;4.410;2022-07-04T01:16:01;17.90;94.50
68139;DHT22;54940;50.842;4.410;2022-07-04T01:18:27;17.90;94.10
68139;DHT22;54940;50.842;4.410;2022-07-04T01:20:53;17.90;94.60
68139;DHT22;54940;50.842;4.410;2022-07-04T01:23:18;17.80;94.40
68139;DHT22;54940;50.842;4.410;2022-07-04T01:25:44;17.80;94.30
68139;DHT22;54940;50.842;4.410;2022-07-04T01:28:10;17.80;94.40
68139;DHT22;54940;50.842;4.410;2022-07-04T01:30:37;17.70;94.60
68139;DHT22;54940;50.842;4.410;2022-07-04T01:33:03;17.70;94.50
68139;DHT22;54940;50.842;4.410;2022-07-04T01:35:29;17.70;94.40
68139;DHT22;54940;50.842;4.410;2022-07-04T01:37:55;17.70;94.20
68139;DHT22;54940;50.842;4.410;2022-07-04T01:40:20;17.70;94.70
68139;DHT22;54940;50.842;4.410;2022-07-04T01:42:46;17.60;94.80
68139;DHT22;54940;50.842;4.410;2022-07-04T01:45:12;17.60;94.70
68139;DHT22;54940;50.842;4.410;2022-07-04T01:47:38;17.60;94.80
68139;DHT22;54940;50.842;4.410;2022-07-04T01:50:05;17.60;94.70
68139;DHT22;54940;50.842;4.410;2022-07-04T01:52:32;17.50;94.70
68139;DHT22;54940;50.842;4.410;2022-07-04T01:54:58;17.50;95.10
68139;DHT22;54940;50.842;4.410;2022-07-04T01:57:23;17.50;95.20
68139;DHT22;54940;50.842;4.410;2022-07-04T01:59:49;17.50;94.80
68139;DHT22;54940;50.842;4.410;2022-07-04T02:02:33;17.50;94.90
68139;DHT22;54940;50.842;4.410;2022-07-04T02:04:59;17.40;94.90
68139;DHT22;54940;50.842;4.410;2022-07-04T02:07:25;17.50;94.90
68139;DHT22;54940;50.842;4.410;2022-07-04T02:09:50;17.50;94.80
68139;DHT22;54940;50.842;4.410;2022-07-04T02:12:16;17.50;94.70
68139;DHT22;54940;50.842;4.410;2022-07-04T02:15:00;17.50;94.90
68139;DHT22;54940;50.842;4.410;2022-07-04T02:17:26;17.50;95.20
68139;DHT22;54940;50.842;4.410;2022-07-04T02:19:52;17.40;95.30
68139;DHT22;54940;50.842;4.410;2022-07-04T02:22:18;17.40;95.10
68139;DHT22;54940;50.842;4.410;2022-07-04T02:24:43;17.30;95.20
68139;DHT22;54940;50.842;4.410;2022-07-04T02:27:09;17.30;95.20
68139;DHT22;54940;50.842;4.410;2022-07-04T02:29:35;17.30;95.10
68139;DHT22;54940;50.842;4.410;2022-07-04T02:32:02;17.20;95.40
68139;DHT22;54940;50.842;4.410;2022-07-04T02:34:28;17.10;95.80
68139;DHT22;54940;50.842;4.410;2022-07-04T02:36:54;17.10;95.80
68139;DHT22;54940;50.842;4.410;2022-07-04T02:39:19;17.00;95.70
68139;DHT22;54940;50.842;4.410;2022-07-04T02:41:45;17.00;95.80
68139;DHT22;54940;50.842;4.410;2022-07-04T02:44:11;17.10;95.70
68139;DHT22;54940;50.842;4.410;2022-07-04T02:46:37;16.90;95.90
68139;DHT22;54940;50.842;4.410;2022-07-04T02:49:03;16.90;96.10
68139;DHT22;54940;50.842;4.410;2022-07-04T02:51:29;16.90;96.20
68139;DHT22;54940;50.842;4.410;2022-07-04T02:53:55;16.80;96.10
68139;DHT22;54940;50.842;4.410;2022-07-04T02:56:21;16.60;96.60
68139;DHT22;54940;50.842;4.410;2022-07-04T02:58:46;16.60;96.50
68139;DHT22;54940;50.842;4.410;2022-07-04T03:01:12;16.60;96.70
68139;DHT22;54940;50.842;4.410;2022-07-04T03:03:41;16.50;96.70
68139;DHT22;54940;50.842;4.410;2022-07-04T03:06:07;16.40;97.40
68139;DHT22;54940;50.842;4.410;2022-07-04T03:08:34;16.40;97.10
68139;DHT22;54940;50.842;4.410;2022-07-04T03:11:00;16.30;97.10
68139;DHT22;54940;50.842;4.410;2022-07-04T03:13:25;16.30;97.60
68139;DHT22;54940;50.842;4.410;2022-07-04T03:15:51;16.40;97.30
68139;DHT22;54940;50.842;4.410;2022-07-04T03:18:17;16.40;97.40
68139;DHT22;54940;50.842;4.410;2022-07-04T03:20:43;16.50;97.40
68139;DHT22;54940;50.842;4.410;2022-07-04T03:23:09;16.50;97.10
68139;DHT22;54940;50.842;4.410;2022-07-04T03:25:35;16.60;97.10
68139;DHT22;54940;50.842;4.410;2022-07-04T03:28:01;16.50;97.00
68139;DHT22;54940;50.842;4.410;2022-07-04T03:30:26;16.40;97.70
68139;DHT22;54940;50.842;4.410;2022-07-04T03:32:52;16.50;97.30
68139;DHT22;54940;50.842;4.410;2022-07-04T03:35:18;16.40;97.10
68139;DHT22;54940;50.842;4.410;2022-07-04T03:37:43;16.40;97.00
68139;DHT22;54940;50.842;4.410;2022-07-04T03:40:09;16.40;97.30
68139;DHT22;54940;50.842;4.410;2022-07-04T03:42:35;16.40;97.10
68139;DHT22;54940;50.842;4.410;2022-07-04T03:45:01;16.40;96.80
68139;DHT22;54940;50.842;4.410;2022-07-04T03:47:26;16.50;97.50
68139;DHT22;54940;50.842;4.410;2022-07-04T03:49:52;16.50;97.40
68139;DHT22;54940;50.842;4.410;2022-07-04T03:52:17;16.50;96.80
68139;DHT22;54940;50.842;4.410;2022-07-04T03:54:43;16.40;96.80
68139;DHT22;54940;50.842;4.410;2022-07-04T03:57:08;16.40;96.90
68139;DHT22;54940;50.842;4.410;2022-07-04T03:59:34;16.40;96.40
68139;DHT22;54940;50.842;4.410;2022-07-04T04:02:00;16.30;96.60
68139;DHT22;54940;50.842;4.410;2022-07-04T04:04:26;16.20;97.80
68139;DHT22;54940;50.842;4.410;2022-07-04T04:07:10;16.20;97.00
68139;DHT22;54940;50.842;4.410;2022-07-04T04:09:35;16.00;97.40
68139;DHT22;54940;50.842;4.410;2022-07-04T04:12:01;16.00;97.40
68139;DHT22;54940;50.842;4.410;2022-07-04T04:14:27;15.90;97.50
68139;DHT22;54940;50.842;4.410;2022-07-04T04:16:53;15.90;97.70
68139;DHT22;54940;50.842;4.410;2022-07-04T04:19:19;15.90;97.40
68139;DHT22;54940;50.842;4.410;2022-07-04T04:21:45;15.90;97.40
68139;DHT22;54940;50.842;4.410;2022-07-04T04:24:10;15.90;97.40
68139;DHT22;54940;50.842;4.410;2022-07-04T04:26:36;15.80;97.50
68139;DHT22;54940;50.842;4.410;2022-07-04T04:29:02;15.70;97.50
68139;DHT22;54940;50.842;4.410;2022-07-04T04:31:28;15.70;97.80
68139;DHT22;54940;50.842;4.410;2022-07-04T04:33:53;15.70;98.10
68139;DHT22;54940;50.842;4.410;2022-07-04T04:36:19;15.80;97.90
68139;DHT22;54940;50.842;4.410;2022-07-04T04:38:45;16.00;97.70
68139;DHT22;54940;50.842;4.410;2022-07-04T04:41:10;16.30;96.70
68139;DHT22;54940;50.842;4.410;2022-07-04T04:43:37;16.30;96.80
68139;DHT22;54940;50.842;4.410;2022-07-04T04:46:02;16.40;96.50
68139;DHT22;54940;50.842;4.410;2022-07-04T04:48:28;16.30;96.40
68139;DHT22;54940;50.842;4.410;2022-07-04T04:50:53;16.40;96.60
68139;DHT22;54940;50.842;4.410;2022-07-04T04:53:19;16.30;96.70
68139;DHT22;54940;50.842;4.410;2022-07-04T04:55:48;16.20;97.20
68139;DHT22;54940;50.842;4.410;2022-07-04T04:58:13;16.00;97.20
68139;DHT22;54940;50.842;4.410;2022-07-04T05:00:39;15.90;97.20
68139;DHT22;54940;50.842;4.410;2022-07-04T05:03:05;15.90;97.30
68139;DHT22;54940;50.842;4.410;2022-07-04T05:05:30;15.90;97.90
68139;DHT22;54940;50.842;4.410;2022-07-04T05:07:56;15.90;97.70
68139;DHT22;54940;50.842;4.410;2022-07-04T05:10:22;15.90;97.50
68139;DHT22;54940;50.842;4.410;2022-07-04T05:12:47;15.90;97.50
68139;DHT22;54940;50.842;4.410;2022-07-04T05:15:13;16.00;97.50
68139;DHT22;54940;50.842;4.410;2022-07-04T05:17:39;16.20;97.50
68139;DHT22;54940;50.842;4.410;2022-07-04T05:20:05;16.20;97.00
68139;DHT22;54940;50.842;4.410;2022-07-04T05:22:31;16.30;96.80
68139;DHT22;54940;50.842;4.410;2022-07-04T05:24:56;16.60;96.80
68139;DHT22;54940;50.842;4.410;2022-07-04T05:27:22;17.10;96.10
68139;DHT22;54940;50.842;4.410;2022-07-04T05:29:48;17.70;95.50
68139;DHT22;54940;50.842;4.410;2022-07-04T05:32:13;18.30;94.10
68139;DHT22;54940;50.842;4.410;2022-07-04T05:34:39;19.10;93.30
68139;DHT22;54940;50.842;4.410;2022-07-04T05:37:04;19.70;92.30
68139;DHT22;54940;50.842;4.410;2022-07-04T05:39:30;20.10;90.80
68139;DHT22;54940;50.842;4.410;2022-07-04T05:41:56;20.50;90.60
68139;DHT22;54940;50.842;4.410;2022-07-04T05:44:21;20.80;89.00
68139;DHT22;54940;50.842;4.410;2022-07-04T05:46:47;21.20;89.80
68139;DHT22;54940;50.842;4.410;2022-07-04T05:49:13;21.40;86.40
68139;DHT22;54940;50.842;4.410;2022-07-04T05:51:38;21.40;86.60
68139;DHT22;54940;50.842;4.410;2022-07-04T05:54:04;21.80;88.20
68139;DHT22;54940;50.842;4.410;2022-07-04T05:56:29;22.20;87.50
68139;DHT22;54940;50.842;4.410;2022-07-04T05:58:56;22.50;83.40
68139;DHT22;54940;50.842;4.410;2022-07-04T06:01:21;22.60;85.00
68139;DHT22;54940;50.842;4.410;2022-07-04T06:03:48;23.00;83.40
68139;DHT22;54940;50.842;4.410;2022-07-04T06:06:14;23.10;82.00
68139;DHT22;54940;50.842;4.410;2022-07-04T06:08:41;22.90;83.70
68139;DHT22;54940;50.842;4.410;2022-07-04T06:11:06;22.50;81.50
68139;DHT22;54940;50.842;4.410;2022-07-04T06:13:32;22.40;84.70
68139;DHT22;54940;50.842;4.410;2022-07-04T06:15:57;22.60;82.60
68139;DHT22;54940;50.842;4.410;2022-07-04T06:18:23;22.80;83.50
68139;DHT22;54940;50.842;4.410;2022-07-04T06:20:49;22.90;80.70
68139;DHT22;54940;50.842;4.410;2022-07-04T06:23:15;23.00;79.70
68139;DHT22;54940;50.842;4.410;2022-07-04T06:25:41;23.10;83.70
68139;DHT22;54940;50.842;4.410;2022-07-04T06:28:06;23.40;83.30
68139;DHT22;54940;50.842;4.410;2022-07-04T06:30:32;23.60;83.10
68139;DHT22;54940;50.842;4.410;2022-07-04T06:32:58;23.90;82.50
68139;DHT22;54940;50.842;4.410;2022-07-04T06:35:27;24.00;75.90
68139;DHT22;54940;50.842;4.410;2022-07-04T06:38:19;24.40;78.00
68139;DHT22;54940;50.842;4.410;2022-07-04T06:40:46;24.40;76.70
68139;DHT22;54940;50.842;4.410;2022-07-04T06:43:12;24.30;77.10
68139;DHT22;54940;50.842;4.410;2022-07-04T06:45:38;24.50;75.60
68139;DHT22;54940;50.842;4.410;2022-07-04T06:48:04;24.90;73.90
68139;DHT22;54940;50.842;4.410;2022-07-04T06:50:31;24.70;76.70
68139;DHT22;54940;50.842;4.410;2022-07-04T06:53:04;24.90;75.30
68139;DHT22;54940;50.842;4.410;2022-07-04T06:55:30;25.40;77.00
68139;DHT22;54940;50.842;4.410;2022-07-04T06:57:56;25.60;75.10
68139;DHT22;54940;50.842;4.410;2022-07-04T07:00:22;25.50;73.60
68139;DHT22;54940;50.842;4.410;2022-07-04T07:02:48;25.20;75.70
68139;DHT22;54940;50.842;4.410;2022-07-04T07:05:14;25.30;76.20
68139;DHT22;54940;50.842;4.410;2022-07-04T07:07:39;25.60;76.40
68139;DHT22;54940;50.842;4.410;2022-07-04T07:10:06;25.60;77.20
68139;DHT22;54940;50.842;4.410;2022-07-04T07:12:32;25.50;72.60
68139;DHT22;54940;50.842;4.410;2022-07-04T07:14:59;25.30;75.40
68139;DHT22;54940;50.842;4.410;2022-07-04T07:17:25;25.40;73.90
68139;DHT22;54940;50.842;4.410;2022-07-04T07:19:51;25.30;73.60
68139;DHT22;54940;50.842;4.410;2022-07-04T07:22:17;25.50;78.30
68139;DHT22;54940;50.842;4.410;2022-07-04T07:24:43;25.70;77.30
68139;DHT22;54940;50.842;4.410;2022-07-04T07:27:09;25.50;76.40
68139;DHT22;54940;50.842;4.410;2022-07-04T07:29:36;25.80;75.00
68139;DHT22;54940;50.842;4.410;2022-07-04T07:32:02;25.60;73.40
68139;DHT22;54940;50.842;4.410;2022-07-04T07:34:29;25.80;73.80
68139;DHT22;54940;50.842;4.410;2022-07-04T07:36:54;26.00;70.70
68139;DHT22;54940;50.842;4.410;2022-07-04T07:39:20;25.70;74.50
68139;DHT22;54940;50.842;4.410;2022-07-04T07:41:46;25.50;71.90
68139;DHT22;54940;50.842;4.410;2022-07-04T07:44:12;25.70;75.60
68139;DHT22;54940;50.842;4.410;2022-07-04T07:46:38;25.60;71.00
68139;DHT22;54940;50.842;4.410;2022-07-04T07:49:03;25.40;72.10
68139;DHT22;54940;50.842;4.410;2022-07-04T07:51:29;25.20;71.70
68139;DHT22;54940;50.842;4.410;2022-07-04T07:53:55;25.10;71.30
68139;DHT22;54940;50.842;4.410;2022-07-04T07:56:21;25.10;71.70
68139;DHT22;54940;50.842;4.410;2022-07-04T07:58:48;25.50;77.60
68139;DHT22;54940;50.842;4.410;2022-07-04T08:01:13;26.00;72.70
68139;DHT22;54940;50.842;4.410;2022-07-04T08:03:39;25.60;73.20
68139;DHT22;54940;50.842;4.410;2022-07-04T08:06:23;26.00;75.50
68139;DHT22;54940;50.842;4.410;2022-07-04T08:08:49;26.10;72.00
68139;DHT22;54940;50.842;4.410;2022-07-04T08:11:14;26.20;66.60
68139;DHT22;54940;50.842;4.410;2022-07-04T08:13:40;25.90;71.70
68139;DHT22;54940;50.842;4.410;2022-07-04T08:16:07;25.90;68.70
68139;DHT22;54940;50.842;4.410;2022-07-04T08:18:33;26.00;73.80
68139;DHT22;54940;50.842;4.410;2022-07-04T08:20:59;26.20;71.60
68139;DHT22;54940;50.842;4.410;2022-07-04T08:23:26;26.30;70.60
68139;DHT22;54940;50.842;4.410;2022-07-04T08:25:52;26.60;67.60
68139;DHT22;54940;50.842;4.410;2022-07-04T08:28:18;26.00;67.70
68139;DHT22;54940;50.842;4.410;2022-07-04T08:30:43;25.90;68.10
68139;DHT22;54940;50.842;4.410;2022-07-04T08:33:09;26.30;68.10
68139;DHT22;54940;50.842;4.410;2022-07-04T08:35:36;26.60;67.60
68139;DHT22;54940;50.842;4.410;2022-07-04T08:38:01;26.40;72.00
68139;DHT22;54940;50.842;4.410;2022-07-04T08:40:28;26.50;65.90
68139;DHT22;54940;50.842;4.410;2022-07-04T08:42:55;26.50;64.40
68139;DHT22;54940;50.842;4.410;2022-07-04T08:45:29;26.30;66.00
68139;DHT22;54940;50.842;4.410;2022-07-04T08:48:03;26.20;70.60
68139;DHT22;54940;50.842;4.410;2022-07-04T08:50:32;26.40;71.20
68139;DHT22;54940;50.842;4.410;2022-07-04T08:53:19;26.80;72.00
68139;DHT22;54940;50.842;4.410;2022-07-04T08:55:47;27.10;68.50
68139;DHT22;54940;50.842;4.410;2022-07-04T08:58:38;27.40;70.40
68139;DHT22;54940;50.842;4.410;2022-07-04T09:01:07;27.20;69.00
68139;DHT22;54940;50.842;4.410;2022-07-04T09:03:33;27.40;68.30
68139;DHT22;54940;50.842;4.410;2022-07-04T09:06:00;27.90;68.90
68139;DHT22;54940;50.842;4.410;2022-07-04T09:08:26;27.90;66.50
68139;DHT22;54940;50.842;4.410;2022-07-04T09:10:53;27.50;69.40
68139;DHT22;54940;50.842;4.410;2022-07-04T09:13:19;27.50;68.00
68139;DHT22;54940;50.842;4.410;2022-07-04T09:15:49;28.00;67.30
68139;DHT22;54940;50.842;4.410;2022-07-04T09:20:51;27.90;63.50
68139;DHT22;54940;50.842;4.410;2022-07-04T09:23:20;28.00;67.30
68139;DHT22;54940;50.842;4.410;2022-07-04T09:25:47;28.10;67.50
68139;DHT22;54940;50.842;4.410;2022-07-04T09:28:26;27.50;62.60
68139;DHT22;54940;50.842;4.410;2022-07-04T09:30:52;26.90;69.00
68139;DHT22;54940;50.842;4.410;2022-07-04T09:33:18;26.60;63.50
68139;DHT22;54940;50.842;4.410;2022-07-04T09:35:45;27.00;70.70
68139;DHT22;54940;50.842;4.410;2022-07-04T09:38:11;26.90;66.70
68139;DHT22;54940;50.842;4.410;2022-07-04T09:40:39;26.80;68.10
68139;DHT22;54940;50.842;4.410;2022-07-04T09:43:24;26.70;64.30
68139;DHT22;54940;50.842;4.410;2022-07-04T09:46:00;26.70;65.30
68139;DHT22;54940;50.842;4.410;2022-07-04T09:48:51;26.60;71.30
68139;DHT22;54940;50.842;4.410;2022-07-04T09:51:44;27.10;69.00
68139;DHT22;54940;50.842;4.410;2022-07-04T09:56:58;27.30;68.30
68139;DHT22;54940;50.842;4.410;2022-07-04T09:59:25;26.90;65.30
68139;DHT22;54940;50.842;4.410;2022-07-04T10:02:11;26.90;69.50
68139;DHT22;54940;50.842;4.410;2022-07-04T10:04:50;26.90;67.90
68139;DHT22;54940;50.842;4.410;2022-07-04T10:07:39;26.50;64.00
68139;DHT22;54940;50.842;4.410;2022-07-04T10:13:04;26.30;72.30
68139;DHT22;54940;50.842;4.410;2022-07-04T10:15:31;26.80;65.70
68139;DHT22;54940;50.842;4.410;2022-07-04T10:17:58;27.00;67.20
68139;DHT22;54940;50.842;4.410;2022-07-04T10:20:25;27.30;64.00
68139;DHT22;54940;50.842;4.410;2022-07-04T10:22:50;27.40;71.30
68139;DHT22;54940;50.842;4.410;2022-07-04T10:25:16;27.80;65.90
68139;DHT22;54940;50.842;4.410;2022-07-04T10:27:42;27.80;65.10
68139;DHT22;54940;50.842;4.410;2022-07-04T10:30:12;28.00;66.70
68139;DHT22;54940;50.842;4.410;2022-07-04T10:32:39;28.50;66.00
68139;DHT22;54940;50.842;4.410;2022-07-04T10:35:05;28.90;65.80
68139;DHT22;54940;50.842;4.410;2022-07-04T10:37:58;29.40;64.10
68139;DHT22;54940;50.842;4.410;2022-07-04T10:40:44;29.90;60.60
68139;DHT22;54940;50.842;4.410;2022-07-04T10:45:54;30.20;59.20
68139;DHT22;54940;50.842;4.410;2022-07-04T10:48:22;30.40;57.70
68139;DHT22;54940;50.842;4.410;2022-07-04T10:51:01;29.70;60.20
68139;DHT22;54940;50.842;4.410;2022-07-04T10:53:28;30.50;65.90
68139;DHT22;54940;50.842;4.410;2022-07-04T10:55:59;31.30;62.60
68139;DHT22;54940;50.842;4.410;2022-07-04T10:58:42;30.70;59.60
68139;DHT22;54940;50.842;4.410;2022-07-04T11:01:11;30.20;58.60
68139;DHT22;54940;50.842;4.410;2022-07-04T11:03:51;30.50;61.30
68139;DHT22;54940;50.842;4.410;2022-07-04T11:09:17;31.70;59.80
68139;DHT22;54940;50.842;4.410;2022-07-04T11:14:36;32.00;58.70
68139;DHT22;54940;50.842;4.410;2022-07-04T11:19:59;32.40;56.30
68139;DHT22;54940;50.842;4.410;2022-07-04T11:22:25;32.50;56.30
68139;DHT22;54940;50.842;4.410;2022-07-04T11:24:50;32.30;58.00
68139;DHT22;54940;50.842;4.410;2022-07-04T11:27:16;33.20;54.10
68139;DHT22;54940;50.842;4.410;2022-07-04T11:29:51;33.20;55.90
68139;DHT22;54940;50.842;4.410;2022-07-04T11:32:18;32.80;53.20
68139;DHT22;54940;50.842;4.410;2022-07-04T11:34:44;32.20;56.80
68139;DHT22;54940;50.842;4.410;2022-07-04T11:37:11;32.50;55.60
68139;DHT22;54940;50.842;4.410;2022-07-04T11:39:37;32.40;51.50
68139;DHT22;54940;50.842;4.410;2022-07-04T11:42:03;30.90;55.70
68139;DHT22;54940;50.842;4.410;2022-07-04T11:44:47;29.90;59.50
68139;DHT22;54940;50.842;4.410;2022-07-04T11:47:43;29.70;58.40
68139;DHT22;54940;50.842;4.410;2022-07-04T11:50:10;29.40;59.70
68139;DHT22;54940;50.842;4.410;2022-07-04T11:52:41;29.30;64.00
68139;DHT22;54940;50.842;4.410;2022-07-04T11:55:09;29.50;60.80
68139;DHT22;54940;50.842;4.410;2022-07-04T11:57:40;29.60;59.80
68139;DHT22;54940;50.842;4.410;2022-07-04T12:00:12;29.20;56.60
68139;DHT22;54940;50.842;4.410;2022-07-04T12:02:38;29.00;64.60
68139;DHT22;54940;50.842;4.410;2022-07-04T12:05:06;28.90;59.30
68139;DHT22;54940;50.842;4.410;2022-07-04T12:07:35;28.80;60.30
68139;DHT22;54940;50.842;4.410;2022-07-04T12:10:08;28.90;58.10
68139;DHT22;54940;50.842;4.410;2022-07-04T12:12:34;28.60;60.70
68139;DHT22;54940;50.842;4.410;2022-07-04T12:15:02;29.00;66.80
68139;DHT22;54940;50.842;4.410;2022-07-04T12:17:31;29.70;62.90
68139;DHT22;54940;50.842;4.410;2022-07-04T12:20:03;30.00;55.60
68139;DHT22;54940;50.842;4.410;2022-07-04T12:22:36;29.80;56.50
68139;DHT22;54940;50.842;4.410;2022-07-04T12:25:05;29.60;57.90
68139;DHT22;54940;50.842;4.410;2022-07-04T12:27:32;29.80;54.90
68139;DHT22;54940;50.842;4.410;2022-07-04T12:29:58;29.40;58.20
68139;DHT22;54940;50.842;4.410;2022-07-04T12:32:44;29.10;57.20
68139;DHT22;54940;50.842;4.410;2022-07-04T12:35:09;29.40;59.20
68139;DHT22;54940;50.842;4.410;2022-07-04T12:37:35;29.70;60.60
68139;DHT22;54940;50.842;4.410;2022-07-04T12:40:08;29.70;57.50
68139;DHT22;54940;50.842;4.410;2022-07-04T12:42:34;30.10;58.40
68139;DHT22;54940;50.842;4.410;2022-07-04T12:45:05;30.90;58.70
68139;DHT22;54940;50.842;4.410;2022-07-04T12:47:32;31.80;54.50
68139;DHT22;54940;50.842;4.410;2022-07-04T12:49:57;31.80;51.80
68139;DHT22;54940;50.842;4.410;2022-07-04T12:52:26;30.90;56.30
68139;DHT22;54940;50.842;4.410;2022-07-04T12:55:07;30.40;54.90
68139;DHT22;54940;50.842;4.410;2022-07-04T12:57:35;29.50;56.40
68139;DHT22;54940;50.842;4.410;2022-07-04T13:00:01;28.80;55.70
68139;DHT22;54940;50.842;4.410;2022-07-04T13:02:26;28.90;60.80
68139;DHT22;54940;50.842;4.410;2022-07-04T13:04:52;29.00;60.10
68139;DHT22;54940;50.842;4.410;2022-07-04T13:07:18;28.60;57.80
68139;DHT22;54940;50.842;4.410;2022-07-04T13:09:45;28.30;59.40
68139;DHT22;54940;50.842;4.410;2022-07-04T13:12:12;28.20;59.50
68139;DHT22;54940;50.842;4.410;2022-07-04T13:14:54;28.20;56.20
68139;DHT22;54940;50.842;4.410;2022-07-04T13:17:20;27.70;61.10
68139;DHT22;54940;50.842;4.410;2022-07-04T13:19:47;27.50;61.60
68139;DHT22;54940;50.842;4.410;2022-07-04T13:22:13;27.40;57.80
68139;DHT22;54940;50.842;4.410;2022-07-04T13:24:39;27.20;59.20
68139;DHT22;54940;50.842;4.410;2022-07-04T13:27:05;27.20;61.70
68139;DHT22;54940;50.842;4.410;2022-07-04T13:29:31;27.40;62.20
68139;DHT22;54940;50.842;4.410;2022-07-04T13:31:56;27.70;60.80
68139;DHT22;54940;50.842;4.410;2022-07-04T13:34:22;28.10;60.70
68139;DHT22;54940;50.842;4.410;2022-07-04T13:36:48;28.40;59.20
68139;DHT22;54940;50.842;4.410;2022-07-04T13:39:13;28.70;59.20
68139;DHT22;54940;50.842;4.410;2022-07-04T13:41:41;28.50;58.60
68139;DHT22;54940;50.842;4.410;2022-07-04T13:44:07;28.20;58.30
68139;DHT22;54940;50.842;4.410;2022-07-04T13:46:34;28.00;57.60
68139;DHT22;54940;50.842;4.410;2022-07-04T13:49:03;27.40;59.10
68139;DHT22;54940;50.842;4.410;2022-07-04T13:51:29;27.10;60.20
68139;DHT22;54940;50.842;4.410;2022-07-04T13:53:55;27.30;62.50
68139;DHT22;54940;50.842;4.410;2022-07-04T13:56:21;27.70;61.30
68139;DHT22;54940;50.842;4.410;2022-07-04T13:58:47;28.00;57.90
68139;DHT22;54940;50.842;4.410;2022-07-04T14:01:13;27.80;58.30
68139;DHT22;54940;50.842;4.410;2022-07-04T14:03:41;27.80;59.10
68139;DHT22;54940;50.842;4.410;2022-07-04T14:06:08;28.30;59.70
68139;DHT22;54940;50.842;4.410;2022-07-04T14:08:34;28.20;60.30
68139;DHT22;54940;50.842;4.410;2022-07-04T14:11:00;28.60;57.90
68139;DHT22;54940;50.842;4.410;2022-07-04T14:13:26;28.90;57.20
68139;DHT22;54940;50.842;4.410;2022-07-04T14:15:52;29.40;56.30
68139;DHT22;54940;50.842;4.410;2022-07-04T14:18:17;30.20;56.00
68139;DHT22;54940;50.842;4.410;2022-07-04T14:20:43;30.40;54.10
68139;DHT22;54940;50.842;4.410;2022-07-04T14:23:09;30.50;55.60
68139;DHT22;54940;50.842;4.410;2022-07-04T14:25:35;30.30;57.00
68139;DHT22;54940;50.842;4.410;2022-07-04T14:28:00;30.20;54.80
68139;DHT22;54940;50.842;4.410;2022-07-04T14:30:27;30.00;57.70
68139;DHT22;54940;50.842;4.410;2022-07-04T14:32:52;29.50;55.40
68139;DHT22;54940;50.842;4.410;2022-07-04T14:35:18;28.90;56.80
68139;DHT22;54940;50.842;4.410;2022-07-04T14:37:44;28.60;57.50
68139;DHT22;54940;50.842;4.410;2022-07-04T14:40:10;28.50;58.70
68139;DHT22;54940;50.842;4.410;2022-07-04T14:42:37;28.40;58.00
68139;DHT22;54940;50.842;4.410;2022-07-04T14:45:02;28.50;56.80
68139;DHT22;54940;50.842;4.410;2022-07-04T14:47:28;28.20;58.30
68139;DHT22;54940;50.842;4.410;2022-07-04T14:49:57;27.90;58.80
68139;DHT22;54940;50.842;4.410;2022-07-04T14:52:23;27.70;60.60
68139;DHT22;54940;50.842;4.410;2022-07-04T14:54:48;27.50;60.60
68139;DHT22;54940;50.842;4.410;2022-07-04T14:57:14;27.20;63.00
68139;DHT22;54940;50.842;4.410;2022-07-04T14:59:39;26.90;60.20
68139;DHT22;54940;50.842;4.410;2022-07-04T15:02:06;26.80;62.70
68139;DHT22;54940;50.842;4.410;2022-07-04T15:04:32;26.80;62.90
68139;DHT22;54940;50.842;4.410;2022-07-04T15:06:58;27.00;61.30
68139;DHT22;54940;50.842;4.410;2022-07-04T15:09:23;26.90;63.20
68139;DHT22;54940;50.842;4.410;2022-07-04T15:11:49;26.80;60.50
68139;DHT22;54940;50.842;4.410;2022-07-04T15:14:17;26.80;59.40
68139;DHT22;54940;50.842;4.410;2022-07-04T15:16:42;26.70;61.60
68139;DHT22;54940;50.842;4.410;2022-07-04T15:19:08;26.60;61.80
68139;DHT22;54940;50.842;4.410;2022-07-04T15:21:34;26.70;62.40
68139;DHT22;54940;50.842;4.410;2022-07-04T15:24:19;26.60;61.60
68139;DHT22;54940;50.842;4.410;2022-07-04T15:26:49;26.50;62.40
68139;DHT22;54940;50.842;4.410;2022-07-04T15:29:16;26.30;61.10
68139;DHT22;54940;50.842;4.410;2022-07-04T15:31:43;26.20;60.30
68139;DHT22;54940;50.842;4.410;2022-07-04T15:34:10;26.20;64.00
68139;DHT22;54940;50.842;4.410;2022-07-04T15:36:36;26.10;64.50
68139;DHT22;54940;50.842;4.410;2022-07-04T15:39:12;26.20;64.10
68139;DHT22;54940;50.842;4.410;2022-07-04T15:41:38;26.20;62.00
68139;DHT22;54940;50.842;4.410;2022-07-04T15:44:04;26.00;62.00
68139;DHT22;54940;50.842;4.410;2022-07-04T15:46:31;26.00;61.60
68139;DHT22;54940;50.842;4.410;2022-07-04T15:48:56;26.10;61.10
68139;DHT22;54940;50.842;4.410;2022-07-04T15:51:22;25.90;61.80